Time;durP1;ratioP1;P1;durP2;ratioP2;P2;SDS_P1;SDS_P2;PMS_P1;PMS_P2;Temp;Humidity;BMP_temperature;BMP_pressure;BME280_temperature;BME280_humidity;BME280_pressure;Samples;Min_cycle;Max_cycle;Signal;HPM_P1;HPM_P2
2021/03/24 00:01:24;;;;;;;4.55;3.63;;;;;;;17.81;51.84;102416.56;6269561;23;20000;-79
2021/03/24 00:03:51;;;;;;;4.15;3.50;;;;;;;17.80;51.91;102414.84;6270308;23;20031;-78
2021/03/24 00:06:44;;;;;;;4.03;3.47;;;;;;;17.81;51.78;102416.56;6192779;23;19988;-79
2021/03/24 00:09:16;;;;;;;4.10;3.50;;;;;;;17.78;51.71;102409.59;6245088;23;20336;-79
2021/03/24 00:11:41;;;;;;;3.88;3.15;;;;;;;17.76;51.89;102405.22;6244108;23;20024;-79
2021/03/24 00:14:13;;;;;;;3.88;3.47;;;;;;;17.77;51.97;102405.25;6270507;23;20011;-79
2021/03/24 00:16:39;;;;;;;3.85;3.13;;;;;;;17.79;51.79;102400.06;6269224;23;20019;-79
2021/03/24 00:19:05;;;;;;;3.20;2.85;;;;;;;17.78;51.63;102399.19;6244292;23;20008;-79
2021/03/24 00:21:31;;;;;;;4.07;3.38;;;;;;;17.74;51.95;102391.31;6220850;23;20013;-79
2021/03/24 00:23:57;;;;;;;4.93;3.40;;;;;;;17.76;51.74;102390.47;6274796;22;20023;-78
2021/03/24 00:26:29;;;;;;;4.07;3.40;;;;;;;17.73;51.99;102392.19;6273893;22;20054;-79
2021/03/24 00:28:55;;;;;;;5.15;3.22;;;;;;;17.73;51.81;102392.19;6269408;22;20015;-78
2021/03/24 00:34:07;;;;;;;3.83;3.07;;;;;;;17.76;51.62;102397.41;6294598;22;20029;-79
2021/03/24 00:36:43;;;;;;;3.25;2.90;;;;;;;17.72;51.91;102393.88;6292068;22;20265;-79
2021/03/24 00:39:09;;;;;;;3.53;3.22;;;;;;;17.75;51.83;102398.28;6243807;22;20003;-79
2021/03/24 00:41:38;;;;;;;3.35;3.05;;;;;;;17.75;51.75;102401.75;6296326;22;20007;-82
2021/03/24 00:44:04;;;;;;;3.15;2.83;;;;;;;17.75;51.66;102406.09;6246926;22;20031;-79
2021/03/24 00:52:28;;;;;;;3.83;3.10;;;;;;;17.72;51.69;102391.28;6300129;22;20055;-79
2021/03/24 00:55:00;;;;;;;3.80;3.20;;;;;;;17.71;51.60;102383.47;6270932;22;20006;-79
2021/03/24 00:57:26;;;;;;;3.47;3.05;;;;;;;17.73;51.51;102390.44;6295656;22;20067;-79
2021/03/24 00:59:55;;;;;;;3.47;2.97;;;;;;;17.73;51.65;102389.56;6294964;22;20030;-79
2021/03/24 01:02:28;;;;;;;3.35;3.05;;;;;;;17.70;51.62;102385.16;6298740;22;19987;-79
2021/03/24 01:04:55;;;;;;;3.63;3.20;;;;;;;17.70;51.66;102382.56;6272957;22;20010;-78
2021/03/24 01:07:46;;;;;;;3.42;2.97;;;;;;;17.68;51.56;102385.16;6272871;22;20014;-79
2021/03/24 01:10:17;;;;;;;3.30;3.00;;;;;;;17.69;51.68;102376.50;6272924;22;20010;-79
2021/03/24 01:12:44;;;;;;;3.63;3.08;;;;;;;17.71;51.61;102378.25;6299505;22;19996;-79
2021/03/24 01:15:19;;;;;;;3.50;3.00;;;;;;;17.67;51.61;102372.13;6257499;22;20027;-79
2021/03/24 01:18:08;;;;;;;3.35;2.88;;;;;;;17.67;51.47;102372.13;6206247;23;20017;-79
2021/03/24 01:20:43;;;;;;;3.75;3.20;;;;;;;17.67;51.66;102369.53;6261266;22;20004;-79
2021/03/24 01:23:10;;;;;;;3.70;3.25;;;;;;;17.68;51.78;102366.94;6253782;22;20055;-79
2021/03/24 01:25:39;;;;;;;3.20;2.90;;;;;;;17.65;51.65;102366.88;6240481;23;20012;-79
2021/03/24 01:28:14;;;;;;;4.47;3.22;;;;;;;17.65;51.51;102366.00;6240972;23;19984;-80
2021/03/24 01:30:48;;;;;;;4.57;3.38;;;;;;;17.66;51.60;102368.66;6240981;23;20009;-79
2021/03/24 01:33:16;;;;;;;;;;;;;;;17.66;51.72;102359.97;6241311;22;20027;-79
2021/03/24 01:39:22;;;;;;;4.15;3.20;;;;;;;17.65;51.47;102363.41;6271299;23;20091;-79
2021/03/24 01:41:50;;;;;;;6.18;3.40;;;;;;;17.63;51.46;102362.50;6244455;23;20015;-79
2021/03/24 01:44:22;;;;;;;4.13;3.30;;;;;;;17.63;51.67;102360.78;6245760;22;20016;-79
2021/03/24 01:46:49;;;;;;;3.80;3.17;;;;;;;17.63;51.57;102358.19;6246413;23;20099;-79
2021/03/24 01:49:45;;;;;;;3.42;3.10;;;;;;;17.65;51.35;102358.22;6270079;22;20039;-79
2021/03/24 01:55:15;;;;;;;3.28;2.97;;;;;;;17.64;51.44;102357.34;6302975;22;20011;-80
2021/03/24 01:57:46;;;;;;;4.18;3.00;;;;;;;17.61;51.79;102354.66;6275095;22;20076;-79
2021/03/24 02:00:24;;;;;;;4.00;3.00;;;;;;;17.63;51.59;102355.56;6301192;22;20050;-79
2021/03/24 02:02:50;;;;;;;3.97;3.10;;;;;;;17.63;51.38;102357.31;6276508;22;20031;-79
2021/03/24 02:05:16;;;;;;;3.83;3.10;;;;;;;17.59;51.65;102347.69;6303262;22;19991;-79
2021/03/24 02:07:56;;;;;;;3.38;3.08;;;;;;;17.60;51.52;102355.53;6274799;22;20038;-79
2021/03/24 02:10:48;;;;;;;3.83;3.33;;;;;;;17.61;51.48;102349.47;6302295;22;20000;-79
2021/03/24 02:13:57;;;;;;;3.60;3.25;;;;;;;17.59;51.44;102345.09;6275957;22;20027;-79
2021/03/24 02:16:43;;;;;;;3.75;3.13;;;;;;;17.58;51.45;102344.22;6235534;22;20004;-79
2021/03/24 02:19:37;;;;;;;3.92;2.95;;;;;;;17.60;51.40;102337.31;6302286;22;19983;-79
2021/03/24 02:22:08;;;;;;;3.47;2.97;;;;;;;17.58;51.40;102338.16;6302917;22;20008;-79
2021/03/24 02:25:07;;;;;;;3.30;3.00;;;;;;;17.60;51.39;102333.84;6251761;22;20011;-79
2021/03/24 02:27:36;;;;;;;3.50;3.00;;;;;;;17.59;51.48;102332.09;6259656;22;20047;-79
2021/03/24 02:30:11;;;;;;;3.80;3.05;;;;;;;17.59;51.42;102329.47;6240241;23;20017;-79
2021/03/24 02:32:50;;;;;;;4.15;3.10;;;;;;;17.56;51.49;102322.50;6216967;23;20035;-79
2021/03/24 02:35:19;;;;;;;3.65;3.30;;;;;;;17.55;51.51;102317.28;6240784;23;20008;-79
2021/03/24 02:37:53;;;;;;;3.83;2.78;;;;;;;17.57;51.42;102323.38;6240229;23;20028;-79
2021/03/24 02:40:20;;;;;;;3.90;2.93;;;;;;;17.56;51.40;102319.03;6222355;23;20028;-80
2021/03/24 02:42:50;;;;;;;3.78;3.08;;;;;;;17.55;51.54;102317.28;6239836;23;20008;-79
2021/03/24 02:45:37;;;;;;;3.58;2.88;;;;;;;17.57;51.48;102315.56;6239946;23;20000;-80
2021/03/24 02:48:16;;;;;;;3.38;3.08;;;;;;;17.53;51.45;102308.56;6253327;22;20019;-79
2021/03/24 02:50:47;;;;;;;3.10;2.78;;;;;;;17.53;51.35;102311.16;6270480;22;20011;-79
2021/03/24 02:53:20;;;;;;;3.15;2.85;;;;;;;17.54;51.50;102310.31;6268015;22;20014;-79
2021/03/24 02:55:47;;;;;;;;;;;;;;;17.55;51.41;102314.66;6246243;22;20609;-79
2021/03/24 02:58:19;;;;;;;3.88;2.90;;;;;;;17.51;51.55;102308.56;6239126;23;19937;-79
2021/03/24 03:00:47;;;;;;;3.47;3.10;;;;;;;17.53;51.36;102313.75;6238697;23;20013;-79
2021/03/24 03:03:33;;;;;;;4.30;3.28;;;;;;;17.54;51.44;102315.53;6237127;23;20749;-79
2021/03/24 03:06:07;;;;;;;3.10;2.80;;;;;;;17.54;51.33;102319.00;6235358;23;20010;-79
2021/03/24 03:08:47;;;;;;;3.80;3.30;;;;;;;17.52;51.37;102317.25;6264052;23;20056;-79
2021/03/24 03:11:50;;;;;;;3.33;3.03;;;;;;;17.50;51.61;102311.13;6211954;23;20004;-79
2021/03/24 03:14:59;;;;;;;4.18;3.17;;;;;;;17.51;51.61;102315.47;6229011;23;20031;-79
2021/03/24 03:17:40;;;;;;;3.40;3.10;;;;;;;17.51;51.38;102321.56;6231578;23;20068;-78
2021/03/24 03:20:44;;;;;;;3.38;2.88;;;;;;;17.49;51.28;102315.47;6232635;23;20027;-80
2021/03/24 03:23:23;;;;;;;3.78;3.10;;;;;;;17.51;51.59;102312.88;6208614;23;20013;-78
2021/03/24 03:26:00;;;;;;;3.30;3.00;;;;;;;17.49;51.42;102312.88;6231201;23;20001;-79
2021/03/24 03:28:28;;;;;;;3.47;3.00;;;;;;;17.46;51.39;102305.00;6206917;23;20313;-79
2021/03/24 03:30:58;;;;;;;3.75;3.08;;;;;;;17.48;51.50;102305.91;6234078;23;20019;-78
2021/03/24 03:33:35;;;;;;;4.95;3.30;;;;;;;17.50;51.64;102303.31;6208766;23;20087;-78
2021/03/24 03:36:01;;;;;;;3.60;3.20;;;;;;;17.49;51.36;102299.84;6209429;23;20000;-79
2021/03/24 03:38:30;;;;;;;3.40;3.00;;;;;;;17.48;51.30;102305.91;6207939;23;19993;-79
2021/03/24 03:41:00;;;;;;;3.60;2.88;;;;;;;17.48;51.42;102304.19;6233631;22;20024;-78
2021/03/24 03:43:32;;;;;;;3.15;2.85;;;;;;;17.48;51.26;102305.91;6205450;23;20021;-79
2021/03/24 03:46:01;;;;;;;4.38;3.08;;;;;;;17.46;51.26;102302.41;6230998;23;20004;-79
2021/03/24 03:48:35;;;;;;;3.30;3.00;;;;;;;17.44;51.28;102297.19;6233470;22;20000;-78
2021/03/24 03:51:12;;;;;;;3.75;3.10;;;;;;;17.47;51.21;102306.78;6212505;23;20021;-79
2021/03/24 03:54:07;;;;;;;3.72;3.10;;;;;;;17.46;51.37;102307.59;6179553;23;20017;-79
2021/03/24 03:56:50;;;;;;;4.80;3.40;;;;;;;17.47;51.39;102304.16;6206558;23;20028;-79
2021/03/24 04:01:47;;;;;;;3.50;3.08;;;;;;;17.46;51.47;102302.41;6272273;22;20031;-79
2021/03/24 04:04:39;;;;;;;4.00;3.33;;;;;;;17.46;51.27;102305.00;6243554;23;20024;-79
2021/03/24 04:07:27;;;;;;;5.28;3.50;;;;;;;17.45;51.20;102301.53;6244749;23;20034;-79
2021/03/24 04:10:13;;;;;;;3.40;3.05;;;;;;;17.44;51.14;102296.28;6271790;23;19984;-79
2021/03/24 04:13:00;;;;;;;3.63;3.22;;;;;;;17.44;51.06;102301.50;6220516;23;20025;-79
2021/03/24 04:15:26;;;;;;;4.13;3.22;;;;;;;17.42;51.27;102304.09;6263950;23;19996;-79
2021/03/24 04:18:12;;;;;;;3.97;3.40;;;;;;;17.43;51.34;102307.56;6216014;23;20063;-78
2021/03/24 04:20:47;;;;;;;4.13;3.15;;;;;;;17.39;51.22;102296.22;6210878;23;20004;-80
2021/03/24 04:23:17;;;;;;;3.95;3.22;;;;;;;17.39;51.22;102301.44;6216064;23;19999;-79
2021/03/24 04:26:07;;;;;;;4.05;3.40;;;;;;;17.39;51.17;102301.44;6243173;23;20044;-79
2021/03/24 04:28:39;;;;;;;3.78;3.10;;;;;;;17.39;51.24;102292.75;6221440;23;20012;-79
2021/03/24 04:31:11;;;;;;;4.13;3.25;;;;;;;17.37;50.98;102297.94;6219543;23;20052;-79
2021/03/24 04:33:38;;;;;;;4.07;3.30;;;;;;;17.37;51.00;102295.34;6218399;23;20039;-79
2021/03/24 04:36:19;;;;;;;3.92;3.30;;;;;;;17.37;51.06;102295.34;6217081;23;20083;-78
2021/03/24 04:38:58;;;;;;;4.07;3.25;;;;;;;17.37;51.11;102290.13;6243132;23;20020;-78
2021/03/24 04:41:56;;;;;;;4.10;3.35;;;;;;;17.38;51.19;102301.44;6214890;23;19993;-79
2021/03/24 04:44:31;;;;;;;3.72;3.15;;;;;;;17.38;51.17;102304.03;6161985;23;20029;-78
2021/03/24 04:47:19;;;;;;;4.00;3.10;;;;;;;17.37;51.12;102299.66;6173702;23;20036;-79
2021/03/24 04:50:19;;;;;;;3.42;3.10;;;;;;;17.37;51.27;102297.94;6154881;23;20001;-78
2021/03/24 04:53:06;;;;;;;4.05;3.15;;;;;;;17.34;51.29;102295.31;6227379;22;20095;-79
2021/03/24 04:55:35;;;;;;;3.30;3.00;;;;;;;17.36;51.07;102304.00;6280778;22;20007;-79
2021/03/24 04:58:03;;;;;;;3.67;3.25;;;;;;;17.33;51.18;102296.13;6277644;22;20011;-79
2021/03/24 05:00:45;;;;;;;3.47;3.03;;;;;;;17.34;51.27;102304.84;6301552;22;20416;-79
2021/03/24 05:05:43;;;;;;;3.88;3.25;;;;;;;17.34;51.12;102302.25;6292314;22;20024;-79
2021/03/24 05:08:20;;;;;;;3.92;3.30;;;;;;;17.33;51.15;102303.94;6266546;22;20019;-79
2021/03/24 05:10:51;;;;;;;4.10;2.97;;;;;;;17.35;51.40;102311.78;6268887;22;20007;-79
2021/03/24 05:13:42;;;;;;;3.72;3.17;;;;;;;17.32;51.37;102310.00;6297305;22;19999;-79
2021/03/24 05:16:21;;;;;;;3.30;2.92;;;;;;;17.34;51.27;102310.03;6296942;22;20007;-79
2021/03/24 05:18:55;;;;;;;3.50;3.15;;;;;;;17.32;51.14;102303.94;6270046;22;20035;-79
2021/03/24 05:21:36;;;;;;;3.38;2.92;;;;;;;17.32;51.33;102304.81;6269781;22;20014;-79
2021/03/24 05:24:13;;;;;;;4.03;3.38;;;;;;;17.30;51.31;102301.31;6295605;22;20023;-79
2021/03/24 05:26:43;;;;;;;4.38;3.28;;;;;;;17.32;50.99;102304.81;6269785;22;20027;-79
2021/03/24 05:29:20;;;;;;;3.63;3.22;;;;;;;17.31;50.98;102303.06;6294231;22;20000;-79
2021/03/24 05:31:48;;;;;;;3.67;3.13;;;;;;;17.30;51.26;102301.31;6292789;22;20102;-79
2021/03/24 05:34:38;;;;;;;3.47;3.00;;;;;;;17.30;51.22;102308.25;6292824;22;20011;-79
2021/03/24 05:37:13;;;;;;;3.40;3.05;;;;;;;17.31;51.15;102304.78;6233793;22;20420;-79
2021/03/24 05:39:42;;;;;;;4.13;3.00;;;;;;;17.34;51.29;102307.44;6274723;22;20014;-79
2021/03/24 05:42:45;;;;;;;3.90;3.22;;;;;;;17.30;51.25;102298.72;6250265;22;20010;-79
2021/03/24 05:45:27;;;;;;;3.83;3.42;;;;;;;17.33;51.25;102301.34;6276527;22;20011;-78
2021/03/24 05:48:23;;;;;;;3.85;3.08;;;;;;;17.33;51.08;102301.34;6303229;22;20004;-79
2021/03/24 05:54:50;;;;;;;3.20;2.72;;;;;;;17.36;51.21;102298.81;6303662;22;20052;-79
2021/03/24 05:57:34;;;;;;;3.55;2.92;;;;;;;17.37;51.17;102305.75;6276674;22;20007;-78
2021/03/24 06:00:10;;;;;;;3.70;3.17;;;;;;;17.37;51.24;102299.66;6276683;22;20010;-79
2021/03/24 06:03:06;;;;;;;3.45;2.83;;;;;;;17.42;51.06;102306.69;6277100;22;20004;-79
2021/03/24 06:09:33;;;;;;;10.27;4.05;;;;;;;17.63;51.03;102305.25;6303501;22;20022;-79
2021/03/24 06:12:36;;;;;;;5.45;4.10;;;;;;;17.65;51.17;102303.53;6301974;22;19990;-79
2021/03/24 06:15:24;;;;;;;5.03;4.20;;;;;;;17.65;51.32;102301.81;6289283;22;20068;-79
2021/03/24 06:18:24;;;;;;;5.43;4.88;;;;;;;17.64;51.34;102299.19;6268686;23;19984;-79
2021/03/24 06:21:31;;;;;;;22.70;7.85;;;;;;;17.81;51.35;102307.22;6270924;23;20035;-81
2021/03/24 06:25:04;;;;;;;20.38;8.98;;;;;;;17.91;51.15;102300.44;6271887;23;20008;-81
2021/03/24 06:34:17;;;;;;;16.45;7.90;;;;;;;18.08;50.51;102296.31;6212487;23;20043;-81
2021/03/24 06:46:09;;;;;;;14.05;7.82;;;;;;;18.46;50.06;102294.09;6281231;22;20035;-81
2021/03/24 06:49:07;;;;;;;14.00;7.68;;;;;;;18.83;49.07;102293.59;6224237;22;20034;-83
2021/03/24 06:52:11;;;;;;;14.48;7.50;;;;;;;19.11;48.33;102297.28;6274172;22;20022;-87
2021/03/24 06:55:14;;;;;;;15.23;7.93;;;;;;;19.30;47.94;102301.78;6290173;22;20042;-87
2021/03/24 06:57:55;;;;;;;13.63;8.18;;;;;;;19.38;47.59;102301.84;6252450;22;20442;-89
2021/03/24 07:00:59;;;;;;;11.80;7.82;;;;;;;19.40;47.81;102292.28;6252931;22;20423;-87
2021/03/24 07:04:05;;;;;;;10.70;7.65;;;;;;;19.59;47.09;102297.59;6253853;22;20462;-88
2021/03/24 07:06:42;;;;;;;10.70;6.95;;;;;;;19.74;46.84;102292.47;6225301;22;20015;-88
2021/03/24 07:09:32;;;;;;;13.57;7.72;;;;;;;19.87;46.34;102281.22;6251851;22;20419;-89
2021/03/24 07:12:02;;;;;;;11.93;7.80;;;;;;;19.93;46.13;102283.00;6250183;22;20086;-87
2021/03/24 07:14:49;;;;;;;11.07;7.80;;;;;;;20.09;45.79;102283.91;6247286;23;20420;-89
2021/03/24 07:17:42;;;;;;;10.30;6.97;;;;;;;20.31;45.69;102287.44;6218377;23;20385;-87
2021/03/24 07:20:28;;;;;;;10.75;6.88;;;;;;;20.45;45.09;102287.47;6247207;23;20000;-88
2021/03/24 07:23:36;;;;;;;9.07;6.65;;;;;;;20.49;45.05;102297.03;6218185;23;20043;-88
2021/03/24 07:26:17;;;;;;;9.55;6.70;;;;;;;20.56;44.92;102298.81;6247471;23;20062;-89
2021/03/24 07:29:01;;;;;;;9.88;7.15;;;;;;;20.53;44.79;102297.09;6248707;23;19984;-91
2021/03/24 07:31:38;;;;;;;7.97;6.50;;;;;;;20.75;44.52;102292.78;6249363;23;20014;-89
2021/03/24 07:34:17;;;;;;;10.07;6.88;;;;;;;20.88;44.06;102292.75;6223411;23;20087;-90
2021/03/24 07:37:05;;;;;;;10.63;7.13;;;;;;;20.91;43.39;102288.41;6224618;23;20011;-86
2021/03/24 07:40:08;;;;;;;10.68;7.30;;;;;;;20.99;43.35;102291.03;6222072;23;20031;-87
2021/03/24 07:43:07;;;;;;;9.13;6.97;;;;;;;21.08;43.05;102296.25;6220165;23;20008;-83
2021/03/24 07:45:50;;;;;;;9.50;6.65;;;;;;;21.11;43.15;102297.97;6247485;23;20459;-85
2021/03/24 07:48:53;;;;;;;10.07;6.63;;;;;;;21.11;43.22;102303.22;6247199;23;20564;-85
2021/03/24 07:51:28;;;;;;;8.25;6.28;;;;;;;21.08;43.15;102292.75;6220985;23;20083;-83
2021/03/24 07:54:05;;;;;;;10.05;6.95;;;;;;;20.76;43.84;102296.25;6248128;23;20058;-85
2021/03/24 07:56:52;;;;;;;9.55;6.10;;;;;;;19.82;46.33;102290.78;6249857;23;20005;-89
2021/03/24 07:59:41;;;;;;;8.73;6.05;;;;;;;19.39;47.60;102297.50;6227201;22;20020;-87
2021/03/24 08:02:34;;;;;;;9.07;6.18;;;;;;;19.73;46.65;102293.38;6222714;23;20052;-89
2021/03/24 08:05:37;;;;;;;9.02;6.13;;;;;;;20.44;44.85;102291.81;6221368;23;20024;-87
2021/03/24 08:08:15;;;;;;;7.15;5.60;;;;;;;20.67;44.34;102291.88;6220543;23;20009;-84
2021/03/24 08:11:05;;;;;;;10.23;5.82;;;;;;;20.67;44.39;102289.28;6219421;23;20006;-85
2021/03/24 08:13:39;;;;;;;8.68;5.65;;;;;;;20.66;44.43;102294.50;6216120;23;20004;-87
2021/03/24 08:16:26;;;;;;;7.93;5.93;;;;;;;20.64;44.41;102297.09;6219920;23;20325;-86
2021/03/24 08:19:29;;;;;;;7.03;5.60;;;;;;;20.55;44.73;102299.69;6219328;23;20004;-89
2021/03/24 08:22:05;;;;;;;8.20;5.50;;;;;;;20.50;44.85;102299.66;6219986;23;20043;-89
2021/03/24 08:25:01;;;;;;;7.50;5.45;;;;;;;20.34;45.35;102295.31;6218972;23;20004;-88
2021/03/24 08:27:27;;;;;;;7.10;5.80;;;;;;;20.34;45.42;102301.41;6222481;23;20031;-87
2021/03/24 08:30:09;;;;;;;7.60;5.57;;;;;;;20.30;45.50;102286.56;6222869;23;20004;-85
2021/03/24 08:33:14;;;;;;;8.00;5.35;;;;;;;20.28;45.56;102293.53;6224154;23;20000;-88
2021/03/24 08:36:08;;;;;;;6.68;5.07;;;;;;;20.19;45.93;102288.28;6234502;23;20011;-85
2021/03/24 08:39:03;;;;;;;7.28;5.82;;;;;;;20.08;46.23;102296.09;6234912;23;20038;-87
2021/03/24 08:42:02;;;;;;;7.88;5.53;;;;;;;20.01;46.43;102293.44;6205894;23;20005;-87
2021/03/24 08:44:39;;;;;;;6.43;4.80;;;;;;;19.97;46.50;102295.19;6235000;23;20015;-90
2021/03/24 08:47:29;;;;;;;5.88;4.82;;;;;;;19.91;46.90;102288.19;6234556;23;20008;-87
2021/03/24 08:49:57;;;;;;;6.40;5.05;;;;;;;19.87;47.04;102291.66;6236169;23;20073;-86
2021/03/24 08:53:00;;;;;;;8.30;5.32;;;;;;;19.77;47.16;102294.22;6235535;23;19993;-86
2021/03/24 08:55:58;;;;;;;7.43;4.80;;;;;;;19.72;47.07;102297.69;6235155;23;20005;-85
2021/03/24 08:58:28;;;;;;;6.82;5.05;;;;;;;19.65;47.58;102290.66;6227755;23;20005;-87
2021/03/24 09:01:21;;;;;;;7.30;5.45;;;;;;;19.64;47.60;102288.94;6234260;23;20076;-86
2021/03/24 09:04:24;;;;;;;7.97;5.30;;;;;;;19.55;47.83;102290.59;6235630;23;20039;-86
2021/03/24 09:07:41;;;;;;;6.32;5.10;;;;;;;19.49;48.02;102284.50;6236299;23;20015;-86
2021/03/24 09:10:45;;;;;;;5.93;4.90;;;;;;;19.48;48.11;102287.09;6186677;23;20011;-85
2021/03/24 09:13:15;;;;;;;;;;;;;;;19.40;48.21;102286.16;6177819;23;20063;-85
2021/03/24 09:16:08;;;;;;;8.63;5.13;;;;;;;19.33;48.30;102277.44;6180480;23;19899;-84
2021/03/24 09:18:47;;;;;;;6.25;5.00;;;;;;;19.29;48.23;102283.50;6222396;22;20012;-83
2021/03/24 09:21:17;;;;;;;6.88;4.95;;;;;;;19.24;48.43;102288.69;6231462;23;20016;-82
2021/03/24 09:24:20;;;;;;;5.28;4.45;;;;;;;19.22;48.67;102293.03;6231041;23;20427;-85
2021/03/24 09:27:29;;;;;;;7.65;5.07;;;;;;;19.18;48.65;102291.25;6233676;23;20454;-85
2021/03/24 09:30:41;;;;;;;6.57;4.75;;;;;;;19.12;49.01;102283.41;6233593;23;20100;-81
2021/03/24 09:33:38;;;;;;;5.30;4.40;;;;;;;19.10;49.01;102288.59;6234519;23;20008;-83
2021/03/24 09:39:35;;;;;;;6.10;4.45;;;;;;;19.06;48.98;102296.41;6236953;23;20051;-82
2021/03/24 09:42:25;;;;;;;7.57;4.78;;;;;;;19.03;48.96;102299.88;6227337;23;20009;-82
2021/03/24 09:45:16;;;;;;;6.07;4.63;;;;;;;18.99;49.23;102292.88;6228298;23;20064;-84
2021/03/24 09:48:03;;;;;;;6.25;4.70;;;;;;;18.96;49.24;102299.78;6227574;23;20348;-81
2021/03/24 09:51:14;;;;;;;6.63;5.22;;;;;;;18.94;49.32;102291.94;6230571;23;20081;-82
2021/03/24 09:53:55;;;;;;;7.15;4.78;;;;;;;18.90;49.31;102288.47;6244655;22;20265;-82
2021/03/24 09:56:24;;;;;;;5.93;4.57;;;;;;;18.88;49.23;102284.09;6174431;23;20035;-81
2021/03/24 09:58:59;;;;;;;6.18;4.65;;;;;;;18.89;49.31;102288.44;6199899;23;20020;-81
2021/03/24 10:01:33;;;;;;;6.38;4.90;;;;;;;18.86;49.13;102280.59;6176137;23;20013;-81
2021/03/24 10:04:31;;;;;;;6.13;4.60;;;;;;;18.85;49.23;102290.13;6174609;23;20452;-84
2021/03/24 10:07:24;;;;;;;9.30;4.88;;;;;;;18.85;49.28;102291.88;6196368;23;20446;-81
2021/03/24 10:09:59;;;;;;;5.93;4.82;;;;;;;18.84;49.26;102291.00;6155813;23;20009;-80
2021/03/24 10:12:32;;;;;;;6.30;5.20;;;;;;;18.83;49.46;102293.59;6198235;23;20040;-80
2021/03/24 10:15:28;;;;;;;4.93;4.40;;;;;;;18.81;49.30;102290.09;6199315;23;20020;-81
2021/03/24 10:21:26;;;;;;;5.85;4.72;;;;;;;18.81;49.12;102277.06;6198036;23;20040;-81
2021/03/24 10:24:16;;;;;;;6.47;5.05;;;;;;;18.79;49.40;102273.56;6198314;23;20052;-80
2021/03/24 10:27:12;;;;;;;5.72;4.35;;;;;;;18.80;49.10;102270.09;6179895;23;20001;-80
2021/03/24 10:30:05;;;;;;;8.82;4.93;;;;;;;18.82;49.42;102278.81;6172966;23;20033;-81
2021/03/24 10:32:57;;;;;;;5.43;4.50;;;;;;;18.83;49.26;102280.56;6175106;23;20010;-81
2021/03/24 10:56:09;;;;;;;8.60;5.25;;;;;;;18.80;49.23;102255.31;6302033;22;20063;-80
2021/03/24 11:01:57;;;;;;;5.68;4.57;;;;;;;18.82;49.13;102250.13;6280187;22;20028;-81
2021/03/24 11:11:38;;;;;;;5.70;5.05;;;;;;;18.89;49.09;102262.34;6303287;22;20003;-81
2021/03/24 11:15:11;;;;;;;5.90;4.47;;;;;;;18.85;49.08;102260.56;6295373;22;20020;-80
2021/03/24 11:20:56;;;;;;;5.47;4.72;;;;;;;18.82;49.06;102260.56;6269842;23;20050;-80
2021/03/24 11:23:44;;;;;;;6.05;4.82;;;;;;;18.81;49.16;102266.63;6252165;22;20016;-80
2021/03/24 11:29:52;;;;;;;6.75;5.05;;;;;;;18.81;49.15;102267.50;6296033;22;20034;-80
2021/03/24 11:32:45;;;;;;;6.10;4.90;;;;;;;18.80;49.21;102267.50;6245926;23;20020;-80
2021/03/24 11:35:38;;;;;;;5.45;4.53;;;;;;;18.80;49.36;102268.38;6246806;22;20039;-80
2021/03/24 11:38:27;;;;;;;6.40;5.25;;;;;;;18.77;49.24;102259.59;6246695;23;20013;-80
2021/03/24 11:41:28;;;;;;;6.25;4.97;;;;;;;18.79;49.14;102253.59;6245938;23;20027;-81
2021/03/24 11:48:07;;;;;;;6.25;5.30;;;;;;;18.80;48.98;102251.84;6210481;23;20048;-81
2021/03/24 11:51:12;;;;;;;13.93;9.82;;;;;;;18.86;49.16;102254.50;6161946;23;20036;-80
2021/03/24 11:54:09;;;;;;;18.55;13.70;;;;;;;18.87;49.29;102253.63;6185047;23;20009;-81
2021/03/24 12:00:16;;;;;;;25.80;18.25;;;;;;;18.84;49.33;102258.84;6188837;23;20024;-80
2021/03/24 12:03:26;;;;;;;28.80;19.70;;;;;;;18.83;49.41;102255.34;6209674;23;20060;-80
2021/03/24 12:06:17;;;;;;;29.27;21.20;;;;;;;18.82;49.30;102255.34;6187460;23;20012;-81
2021/03/24 12:09:15;;;;;;;30.00;22.30;;;;;;;18.84;49.60;102261.44;6209805;23;20000;-82
2021/03/24 12:11:41;;;;;;;34.75;23.38;;;;;;;18.84;49.28;102257.09;6183339;23;20005;-80
2021/03/24 12:14:49;;;;;;;34.70;22.80;;;;;;;18.86;49.47;102254.50;6240812;23;20016;-86
2021/03/24 12:20:44;;;;;;;35.55;24.77;;;;;;;18.87;49.52;102264.94;6270564;22;20012;-83
2021/03/24 12:23:12;;;;;;;37.35;24.77;;;;;;;18.84;49.14;102249.28;6266960;23;20020;-82
2021/03/24 12:26:04;;;;;;;34.75;23.08;;;;;;;18.86;49.46;102257.13;6270193;23;20016;-82
2021/03/24 12:28:42;;;;;;;33.72;23.30;;;;;;;18.85;49.46;102255.34;6237889;23;19996;-81
2021/03/24 12:34:59;;;;;;;32.40;22.73;;;;;;;18.85;49.16;102253.63;6251453;22;20067;-80
2021/03/24 12:37:34;;;;;;;33.97;22.27;;;;;;;18.88;49.30;102252.78;6238279;23;20028;-81
2021/03/24 12:40:15;;;;;;;31.38;21.65;;;;;;;18.84;49.32;102240.59;6239364;23;20036;-80
2021/03/24 12:42:41;;;;;;;34.05;21.52;;;;;;;18.87;49.38;102251.03;6122135;23;20081;-82
2021/03/24 12:45:47;;;;;;;31.23;21.63;;;;;;;18.84;49.52;102241.44;6096526;23;20475;-81
2021/03/24 12:48:35;;;;;;;29.70;21.17;;;;;;;18.85;49.54;102240.56;6162054;22;20016;-80
2021/03/24 12:51:20;;;;;;;28.67;20.33;;;;;;;18.90;49.45;102238.00;6239005;23;19997;-79
2021/03/24 12:54:08;;;;;;;28.88;19.63;;;;;;;18.96;49.15;102229.34;6212068;23;20360;-84
2021/03/24 13:00:49;;;;;;;22.98;18.48;;;;;;;19.01;49.05;102230.25;6252984;22;20054;-85
2021/03/24 13:03:48;;;;;;;27.15;19.17;;;;;;;19.01;49.20;102236.38;6268662;22;20085;-83
2021/03/24 13:06:24;;;;;;;24.98;18.02;;;;;;;18.98;49.05;102222.41;6266526;22;20008;-82
2021/03/24 13:09:27;;;;;;;26.00;17.27;;;;;;;18.99;49.14;102217.22;6272779;22;19999;-79
2021/03/24 13:12:25;;;;;;;25.27;17.65;;;;;;;18.99;49.05;102225.03;6298879;22;19995;-81
2021/03/24 13:15:38;;;;;;;25.10;16.90;;;;;;;18.97;49.26;102216.34;6273178;22;20063;-82
2021/03/24 13:18:25;;;;;;;25.58;17.40;;;;;;;19.01;48.90;102218.09;6175720;23;20048;-82
2021/03/24 13:21:15;;;;;;;20.95;15.75;;;;;;;19.02;49.17;102219.84;6302460;22;19983;-83
2021/03/24 13:24:18;;;;;;;22.58;15.75;;;;;;;19.03;49.08;102220.69;6235764;22;20047;-83
2021/03/24 13:26:56;;;;;;;22.37;15.83;;;;;;;19.01;48.91;102218.09;6269203;22;20007;-83
2021/03/24 13:30:01;;;;;;;20.42;15.93;;;;;;;19.02;49.05;102213.75;6260808;22;20020;-81
2021/03/24 13:33:20;;;;;;;21.77;15.68;;;;;;;19.00;49.17;102207.66;6229266;23;20017;-79
2021/03/24 13:36:22;;;;;;;19.15;14.27;;;;;;;19.00;49.00;102199.81;6143317;23;20053;-82
2021/03/24 13:39:06;;;;;;;19.50;15.10;;;;;;;18.99;49.00;102208.50;6109504;23;20073;-82
2021/03/24 13:45:43;;;;;;;17.58;13.43;;;;;;;18.99;49.00;102206.78;6243345;22;20026;-82
2021/03/24 13:51:49;;;;;;;19.30;12.43;;;;;;;18.99;49.02;102204.19;6292310;22;20091;-84
2021/03/24 13:55:00;;;;;;;18.10;12.77;;;;;;;18.99;49.10;102195.44;6295303;22;20028;-82
2021/03/24 13:57:48;;;;;;;17.23;12.18;;;;;;;18.99;49.11;102203.28;6271002;22;20004;-82
2021/03/24 14:00:51;;;;;;;15.63;11.82;;;;;;;18.99;48.95;102198.06;6272020;22;20008;-81
2021/03/24 14:03:54;;;;;;;15.52;11.95;;;;;;;18.97;49.03;102203.28;6262056;22;20011;-81
2021/03/24 14:10:20;;;;;;;16.55;11.13;;;;;;;18.99;49.13;102200.66;6302043;22;20022;-81
2021/03/24 14:13:05;;;;;;;16.45;10.95;;;;;;;18.99;49.10;102205.88;6269341;22;20402;-82
2021/03/24 14:16:16;;;;;;;13.73;10.50;;;;;;;18.99;49.09;102201.56;6276012;22;20011;-81
2021/03/24 14:19:23;;;;;;;14.23;10.57;;;;;;;19.02;49.08;102191.13;6261094;22;20108;-82
2021/03/24 14:25:50;;;;;;;12.63;9.50;;;;;;;19.01;48.88;102186.78;6241954;23;20051;-82
2021/03/24 14:28:46;;;;;;;;;;;;;;;19.01;49.04;102178.97;6241181;23;20064;-84
2021/03/24 14:31:50;;;;;;;12.38;9.45;;;;;;;19.00;48.89;102182.44;6159328;23;19909;-84
2021/03/24 14:36:48;;;;;;;12.05;8.98;;;;;;;18.97;49.09;102169.38;6298261;22;20030;-79
2021/03/24 14:40:07;;;;;;;12.25;8.60;;;;;;;18.97;48.88;102164.16;6276877;22;20018;-83
2021/03/24 14:46:42;;;;;;;12.40;8.65;;;;;;;18.98;49.09;102171.09;6241453;23;20483;-83